Time;durP1;ratioP1;P1;durP2;ratioP2;P2;SDS_P1;SDS_P2;PMS_P1;PMS_P2;Temp;Humidity;BMP_temperature;BMP_pressure;BME280_temperature;BME280_humidity;BME280_pressure;Samples;Min_cycle;Max_cycle;Signal;HPM_P1;HPM_P2
2022/05/15 00:01:23;;;;;;;5.78;3.20;;;16.50;46.00;;;16.98;40.11;97878.25;5086132;28;20052;-44
2022/05/15 00:03:51;;;;;;;7.30;3.30;;;16.50;46.00;;;16.98;39.63;97879.06;5086456;28;20051;-44
2022/05/15 00:06:19;;;;;;;9.15;4.82;;;16.50;45.80;;;16.98;39.90;97873.69;5085870;28;20040;-44
2022/05/15 00:08:47;;;;;;;8.35;4.55;;;16.40;45.80;;;16.93;40.13;97866.22;5067957;28;20052;-44
2022/05/15 00:11:19;;;;;;;6.18;4.10;;;16.40;46.10;;;16.91;40.24;97868.28;5086357;28;20062;-44
2022/05/15 00:13:48;;;;;;;8.27;3.85;;;16.40;46.50;;;16.87;40.28;97868.88;5086543;28;20051;-45
2022/05/15 00:16:17;;;;;;;6.22;3.45;;;16.30;46.70;;;16.83;40.70;97871.13;5085133;28;20400;-44
2022/05/15 00:18:46;;;;;;;5.40;3.08;;;16.30;47.20;;;16.81;40.74;97866.94;5068676;28;20058;-43
2022/05/15 00:21:14;;;;;;;4.85;3.65;;;16.20;47.30;;;16.71;40.70;97860.06;5086640;28;20046;-44
2022/05/15 00:23:42;;;;;;;5.28;3.42;;;16.10;47.50;;;16.66;40.72;97857.13;5085522;28;20054;-43
2022/05/15 00:26:11;;;;;;;5.40;3.25;;;16.00;47.70;;;16.59;40.99;97861.59;5084110;28;20069;-44
2022/05/15 00:28:39;;;;;;;6.20;3.10;;;15.90;47.90;;;16.54;41.17;97869.44;5086460;28;20388;-43
2022/05/15 00:31:07;;;;;;;3.88;3.50;;;15.90;48.50;;;16.48;41.35;97857.59;5086920;28;20062;-44
2022/05/15 00:33:35;;;;;;;4.43;3.30;;;15.90;48.60;;;16.43;41.54;97869.94;5086226;28;20060;-44
2022/05/15 00:36:04;;;;;;;11.40;3.78;;;15.80;48.70;;;16.38;41.64;97867.00;5086959;28;20040;-45
2022/05/15 00:38:32;;;;;;;4.90;3.00;;;15.70;48.80;;;16.34;41.82;97861.16;5086852;28;20052;-43
2022/05/15 00:41:00;;;;;;;4.60;3.55;;;15.80;48.70;;;16.34;41.81;97853.09;5068034;28;20048;-43
2022/05/15 00:43:58;;;;;;;7.13;3.50;;;15.80;48.80;;;16.30;41.80;97855.38;5067321;28;20273;-43
2022/05/15 00:46:30;;;;;;;3.53;3.10;;;15.80;50.30;;;16.31;41.79;97853.50;5059827;28;20338;-43
2022/05/15 00:49:04;;;;;;;5.10;2.53;;;15.70;48.70;;;16.28;42.07;97843.97;5068889;28;20059;-43
2022/05/15 00:52:01;;;;;;;6.07;3.22;;;15.70;49.30;;;16.26;42.22;97848.69;5086571;28;20055;-43
2022/05/15 00:54:41;;;;;;;5.30;3.08;;;15.70;50.20;;;16.21;42.63;97850.31;5085934;28;20051;-45
2022/05/15 00:57:30;;;;;;;6.03;3.15;;;15.60;50.80;;;16.15;42.79;97843.88;5068638;28;20044;-42
2022/05/15 01:00:09;;;;;;;4.90;3.25;;;15.50;51.30;;;16.10;42.60;97839.06;5069897;28;20044;-43
2022/05/15 01:02:51;;;;;;;5.32;2.72;;;15.50;51.10;;;16.08;42.88;97838.41;5067075;28;20052;-43
2022/05/15 01:05:20;;;;;;;6.18;2.58;;;15.50;50.90;;;16.08;42.60;97842.97;5066344;28;20346;-43
2022/05/15 01:07:48;;;;;;;4.65;2.40;;;15.50;50.30;;;16.04;42.80;97834.44;5086239;28;20044;-42
2022/05/15 01:10:17;;;;;;;5.35;2.72;;;15.50;50.40;;;16.05;42.99;97829.91;5067373;28;20066;-43
2022/05/15 01:12:48;;;;;;;6.13;3.33;;;15.50;50.50;;;16.04;43.02;97830.94;5085393;28;20048;-42
2022/05/15 01:15:23;;;;;;;5.45;3.20;;;15.50;50.50;;;16.01;43.16;97828.63;5068235;28;20496;-42
2022/05/15 01:17:53;;;;;;;3.10;2.35;;;15.40;51.00;;;15.98;43.08;97837.09;5068256;28;20052;-43
2022/05/15 01:20:27;;;;;;;5.78;2.65;;;15.40;50.70;;;15.96;43.22;97833.75;5070981;28;20054;-43
2022/05/15 01:22:55;;;;;;;6.40;3.00;;;15.40;50.80;;;15.98;43.08;97831.72;5088106;28;20044;-42
2022/05/15 01:25:28;;;;;;;5.25;2.40;;;15.50;50.60;;;15.98;42.93;97839.75;5090192;28;20051;-43
2022/05/15 01:28:12;;;;;;;3.20;2.20;;;15.50;50.40;;;15.93;42.98;97837.63;5071424;28;20051;-43
2022/05/15 01:30:46;;;;;;;3.47;2.55;;;15.40;50.60;;;15.87;42.87;97833.03;5071669;28;20552;-43
2022/05/15 01:33:14;;;;;;;;;;;15.30;50.60;;;15.82;42.83;97827.41;5055036;28;20060;-43
2022/05/15 01:35:43;;;;;;;3.95;2.60;;;15.30;51.80;;;15.85;42.66;97833.22;5090241;28;19924;-43
2022/05/15 01:38:12;;;;;;;4.57;2.10;;;15.30;50.00;;;15.85;42.18;97827.03;5070267;28;20064;-43
2022/05/15 01:40:41;;;;;;;3.75;2.58;;;15.30;49.30;;;15.82;42.20;97830.06;5053020;28;20051;-44
2022/05/15 01:43:11;;;;;;;4.90;2.72;;;15.30;48.90;;;15.77;41.98;97829.84;5069839;28;20144;-43
2022/05/15 01:45:39;;;;;;;4.68;2.65;;;15.30;48.40;;;15.80;42.10;97832.97;5089336;28;20056;-43
2022/05/15 01:48:08;;;;;;;3.33;2.25;;;15.30;48.40;;;15.78;42.09;97832.34;5089406;28;20048;-43
2022/05/15 01:50:36;;;;;;;3.30;2.15;;;15.30;48.30;;;15.80;42.11;97838.34;5089176;28;20042;-43
2022/05/15 01:53:04;;;;;;;5.53;2.10;;;15.40;48.10;;;15.87;41.94;97841.09;5069714;28;20063;-43
2022/05/15 01:55:32;;;;;;;3.33;2.40;;;15.50;48.10;;;15.89;41.88;97839.03;5088842;28;20048;-42
2022/05/15 01:57:59;;;;;;;3.42;3.13;;;15.50;47.90;;;15.89;41.95;97841.72;5087633;28;20048;-44
2022/05/15 02:00:28;;;;;;;6.50;2.90;;;15.40;47.90;;;15.90;42.01;97841.53;5087699;28;20044;-45
2022/05/15 02:02:56;;;;;;;3.45;2.92;;;15.50;48.30;;;15.90;41.80;97840.72;5053551;28;20078;-43
2022/05/15 02:05:24;;;;;;;3.50;2.55;;;15.40;48.00;;;15.86;42.04;97836.75;5070937;28;20062;-45
2022/05/15 02:07:53;;;;;;;4.78;2.78;;;15.40;48.20;;;15.84;41.98;97839.63;5089100;28;20245;-42
2022/05/15 02:10:21;;;;;;;4.20;2.70;;;15.40;48.50;;;15.80;42.29;97834.81;5070706;28;20082;-44
2022/05/15 02:12:49;;;;;;;5.22;3.08;;;15.30;48.90;;;15.73;42.46;97834.75;5086962;28;20364;-44
2022/05/15 02:15:18;;;;;;;4.55;3.20;;;15.20;49.30;;;15.67;42.62;97838.16;5068883;28;20265;-43
2022/05/15 02:17:46;;;;;;;5.93;3.00;;;15.10;49.60;;;15.63;42.55;97836.88;5069885;28;20058;-43
2022/05/15 02:20:14;;;;;;;4.53;3.20;;;15.10;49.40;;;15.63;42.70;97837.69;5087656;28;20346;-44
2022/05/15 02:22:44;;;;;;;4.05;3.33;;;15.10;49.60;;;15.65;42.74;97843.72;5053195;28;20479;-45
2022/05/15 02:25:14;;;;;;;4.30;3.00;;;15.20;49.40;;;15.67;42.77;97844.34;5087171;28;20054;-43
2022/05/15 02:27:45;;;;;;;4.53;3.00;;;15.20;49.50;;;15.69;42.94;97833.44;5069081;28;20361;-44
2022/05/15 02:30:16;;;;;;;6.07;2.92;;;15.30;49.60;;;15.67;42.92;97828.25;5052886;28;20349;-43
2022/05/15 02:32:45;;;;;;;4.20;3.47;;;15.20;49.70;;;15.63;42.94;97840.38;5069787;28;20051;-45
2022/05/15 02:35:13;;;;;;;5.47;3.00;;;15.10;50.00;;;15.60;43.21;97830.00;5088447;28;20054;-43
2022/05/15 02:37:44;;;;;;;3.60;2.78;;;15.10;51.10;;;15.56;43.44;97834.09;5087160;28;20036;-46
2022/05/15 02:40:14;;;;;;;5.68;3.15;;;15.00;50.60;;;15.56;43.28;97831.41;5070545;28;20062;-43
2022/05/15 02:42:43;;;;;;;5.70;3.00;;;15.00;50.50;;;15.55;43.30;97832.44;5053506;28;20052;-45
2022/05/15 02:45:13;;;;;;;3.95;2.92;;;14.90;50.70;;;15.48;43.70;97835.03;5069516;28;20364;-44
2022/05/15 02:47:41;;;;;;;3.97;3.00;;;14.90;51.30;;;15.43;43.89;97825.88;5086802;28;20357;-42
2022/05/15 02:52:58;;;;;;;5.72;3.53;;;14.80;51.80;;;15.32;44.04;97816.47;5088132;28;20433;-43
2022/05/15 02:55:26;;;;;;;4.28;3.10;;;14.70;51.90;;;15.29;44.05;97823.03;5070124;28;20064;-43
2022/05/15 02:57:54;;;;;;;6.00;3.28;;;14.70;52.20;;;15.26;44.34;97818.06;5087586;28;20070;-44
2022/05/15 03:00:25;;;;;;;5.10;3.45;;;14.70;52.10;;;15.23;44.30;97823.78;5088126;28;20060;-42
2022/05/15 03:02:53;;;;;;;5.57;3.65;;;14.60;52.20;;;15.23;44.33;97825.66;5088745;28;20052;-43
2022/05/15 03:05:28;;;;;;;4.13;3.25;;;14.60;52.20;;;15.23;44.28;97821.09;5070946;28;20417;-44
2022/05/15 03:07:56;;;;;;;7.35;4.30;;;14.70;52.00;;;15.22;44.26;97821.28;5085844;28;20369;-42
2022/05/15 03:10:25;;;;;;;4.53;3.40;;;14.60;51.80;;;15.18;44.19;97823.53;5087531;28;20373;-42
2022/05/15 03:12:52;;;;;;;7.65;3.97;;;14.60;52.00;;;15.14;44.25;97823.06;5070810;28;20052;-45
2022/05/15 03:15:20;;;;;;;6.60;3.90;;;14.60;51.90;;;15.11;44.62;97827.97;5087898;28;20243;-44
2022/05/15 03:17:48;;;;;;;5.15;3.35;;;14.50;52.40;;;15.07;44.51;97826.69;5069032;28;20056;-44
2022/05/15 03:20:18;;;;;;;5.32;3.53;;;14.50;52.50;;;15.04;44.71;97827.03;5068839;28;20056;-43
2022/05/15 03:22:48;;;;;;;5.72;3.95;;;14.40;52.80;;;15.04;45.08;97830.53;5088116;28;20060;-45
2022/05/15 03:25:16;;;;;;;5.47;3.85;;;14.50;52.90;;;15.03;44.93;97828.06;5087399;28;20074;-43
2022/05/15 03:27:44;;;;;;;4.78;3.90;;;14.40;52.70;;;14.99;44.94;97827.59;5085305;28;20058;-44
2022/05/15 03:30:13;;;;;;;6.25;3.40;;;14.40;52.80;;;14.98;45.08;97817.88;5067786;28;20056;-44
2022/05/15 03:32:41;;;;;;;4.38;3.08;;;14.40;53.60;;;14.96;45.06;97820.75;5087840;28;20044;-43
2022/05/15 03:35:11;;;;;;;4.95;3.22;;;14.50;52.90;;;14.98;44.89;97819.72;5068424;28;20055;-44
2022/05/15 03:37:39;;;;;;;6.65;4.20;;;14.50;52.90;;;14.98;45.15;97825.91;5084691;28;20048;-45
2022/05/15 03:40:15;;;;;;;9.30;3.45;;;14.50;53.00;;;14.99;45.22;97830.28;5068589;28;20052;-43
2022/05/15 03:42:44;;;;;;;5.03;3.60;;;14.40;52.90;;;14.98;44.94;97830.47;5067471;28;20342;-43
2022/05/15 03:45:12;;;;;;;5.15;3.30;;;14.40;52.70;;;14.95;45.08;97834.34;5087111;28;20052;-41
2022/05/15 03:47:50;;;;;;;4.68;2.65;;;14.40;52.90;;;14.93;45.26;97839.88;5068787;28;20374;-41
2022/05/15 03:50:25;;;;;;;4.00;2.85;;;14.40;53.90;;;14.90;45.45;97842.09;5068767;28;20054;-41
2022/05/15 03:52:53;;;;;;;4.25;3.50;;;14.30;53.60;;;14.85;45.33;97834.63;5087260;28;20059;-41
2022/05/15 03:55:22;;;;;;;6.05;3.97;;;14.30;53.50;;;14.83;45.50;97846.53;5084554;28;20113;-41
2022/05/15 03:57:55;;;;;;;3.53;3.08;;;14.30;53.80;;;14.78;45.63;97841.72;5067829;28;20066;-41
2022/05/15 04:00:25;;;;;;;4.15;3.70;;;14.20;54.00;;;14.73;45.79;97847.66;5086682;28;20054;-42
2022/05/15 04:02:52;;;;;;;6.28;4.32;;;14.10;54.40;;;14.70;45.79;97844.50;5067897;28;20047;-42
2022/05/15 04:05:20;;;;;;;7.07;3.78;;;14.10;54.40;;;14.65;45.94;97852.22;5052969;28;20058;-42
2022/05/15 04:07:50;;;;;;;6.47;3.95;;;14.00;54.70;;;14.61;46.08;97850.94;5086081;28;20048;-42
2022/05/15 04:10:22;;;;;;;4.18;3.20;;;14.00;55.00;;;14.56;46.34;97844.28;5085779;28;20058;-42
2022/05/15 04:12:50;;;;;;;5.03;3.28;;;13.90;55.30;;;14.53;46.08;97841.91;5086776;28;20050;-42
2022/05/15 04:15:19;;;;;;;4.50;3.50;;;13.90;55.20;;;14.53;46.41;97843.78;5083479;28;20064;-42
2022/05/15 04:17:52;;;;;;;4.65;3.70;;;13.90;55.10;;;14.55;46.51;97839.88;5066927;28;20052;-41
2022/05/15 04:20:25;;;;;;;4.82;3.63;;;14.00;55.00;;;14.56;46.65;97846.09;5084743;28;20048;-41
2022/05/15 04:22:53;;;;;;;5.73;3.20;;;14.10;55.30;;;14.56;46.54;97838.91;5067812;28;20050;-41
2022/05/15 04:25:22;;;;;;;5.28;3.05;;;14.10;55.30;;;14.59;46.93;97840.41;5068939;28;20234;-41
2022/05/15 04:27:50;;;;;;;6.53;3.75;;;14.10;55.30;;;14.61;46.70;97843.72;5086447;28;20050;-42
2022/05/15 04:30:23;;;;;;;5.68;3.85;;;14.20;55.20;;;14.65;46.76;97855.72;5068257;28;20062;-42
2022/05/15 04:32:52;;;;;;;4.95;3.13;;;14.20;55.50;;;14.65;46.79;97845.03;5066839;28;20047;-42
2022/05/15 04:35:22;;;;;;;5.28;3.88;;;14.20;55.20;;;14.67;46.87;97847.53;5069064;28;20056;-42
2022/05/15 04:37:51;;;;;;;5.03;4.07;;;14.20;55.50;;;14.69;46.99;97850.84;5051495;28;20051;-41
2022/05/15 04:40:21;;;;;;;6.35;3.90;;;14.20;55.70;;;14.70;47.21;97845.31;5069252;28;20048;-41
2022/05/15 04:42:49;;;;;;;5.90;4.22;;;14.30;56.20;;;14.72;47.34;97851.31;5086987;28;20050;-41
2022/05/15 04:45:17;;;;;;;7.55;4.07;;;14.30;56.30;;;14.72;47.68;97842.47;5066777;28;20048;-41
2022/05/15 04:47:46;;;;;;;6.55;5.15;;;14.30;56.80;;;14.72;47.99;97845.97;5085515;28;20055;-42
2022/05/15 04:50:16;;;;;;;7.03;4.43;;;14.30;57.00;;;14.75;47.85;97850.13;5052072;28;20056;-45
2022/05/15 04:52:45;;;;;;;7.13;4.60;;;14.40;56.80;;;14.76;47.96;97841.91;5071759;28;20342;-43
2022/05/15 04:55:13;;;;;;;6.93;5.95;;;14.40;57.00;;;14.80;48.24;97846.91;5072209;28;20238;-44
2022/05/15 04:57:42;;;;;;;6.03;4.63;;;14.40;57.20;;;14.76;48.14;97844.56;5072162;28;20044;-45
2022/05/15 05:00:17;;;;;;;8.50;4.63;;;14.30;57.50;;;14.75;48.52;97842.06;5088970;28;20334;-45
2022/05/15 05:02:46;;;;;;;5.32;4.30;;;14.30;57.90;;;14.75;48.73;97844.75;5088843;28;20350;-43
2022/05/15 05:05:14;;;;;;;4.28;3.35;;;14.30;57.60;;;14.77;48.08;97843.56;5089944;28;20242;-44
2022/05/15 05:07:42;;;;;;;6.28;3.10;;;14.40;56.50;;;14.83;47.96;97849.19;5090122;28;20047;-42
2022/05/15 05:10:13;;;;;;;6.82;2.92;;;14.50;56.00;;;14.87;47.72;97843.31;5071602;28;20058;-42
2022/05/15 05:12:41;;;;;;;4.10;3.70;;;14.60;55.80;;;14.94;47.47;97849.56;5090457;28;20052;-43
2022/05/15 05:15:12;;;;;;;5.22;3.00;;;14.70;54.90;;;15.03;47.01;97853.03;5090392;28;20044;-42
2022/05/15 05:17:42;;;;;;;4.25;2.80;;;14.90;54.30;;;15.08;47.13;97857.81;5089443;28;20048;-44
2022/05/15 05:20:13;;;;;;;4.70;3.22;;;14.90;53.90;;;15.15;46.86;97862.25;5070660;28;20052;-45
2022/05/15 05:22:42;;;;;;;3.83;3.33;;;15.00;53.50;;;15.22;46.47;97869.56;5088764;28;20242;-45
2022/05/15 05:25:11;;;;;;;5.03;3.58;;;15.10;53.10;;;15.29;46.42;97874.00;5090471;28;20054;-43
2022/05/15 05:27:41;;;;;;;3.60;2.95;;;15.10;53.10;;;15.32;46.38;97873.63;5089028;28;20284;-43
2022/05/15 05:30:22;;;;;;;3.45;2.63;;;15.10;53.30;;;15.39;46.62;97886.31;5090099;28;20050;-45
2022/05/15 05:32:51;;;;;;;6.45;3.70;;;15.20;53.70;;;15.45;47.53;97882.88;5087633;28;20056;-45
2022/05/15 05:35:21;;;;;;;5.75;3.78;;;15.20;55.20;;;15.51;48.04;97876.78;5070368;28;20062;-45
2022/05/15 05:37:50;;;;;;;4.50;3.75;;;15.30;56.10;;;15.56;48.18;97887.75;5089140;28;20368;-46
2022/05/15 05:40:19;;;;;;;6.55;4.35;;;15.40;56.20;;;15.57;48.57;97881.38;5072452;28;20044;-45
2022/05/15 05:42:47;;;;;;;5.10;3.90;;;15.30;56.90;;;15.59;48.80;97875.84;5089586;28;20039;-44
2022/05/15 05:45:17;;;;;;;7.40;4.15;;;15.30;57.50;;;15.61;49.25;97871.13;5089860;28;20246;-44
2022/05/15 05:47:49;;;;;;;4.78;4.38;;;15.30;58.30;;;15.62;49.45;97872.78;5089084;28;20063;-43
2022/05/15 05:50:20;;;;;;;6.35;3.90;;;15.30;58.90;;;15.65;50.09;97864.34;5088960;28;20052;-44
2022/05/15 05:52:48;;;;;;;5.93;3.55;;;15.40;59.40;;;15.67;50.18;97865.81;5088906;28;20609;-44
2022/05/15 05:55:18;;;;;;;5.43;4.55;;;15.40;59.40;;;15.68;50.78;97872.00;5089776;28;20513;-44
2022/05/15 05:57:47;;;;;;;5.30;3.97;;;15.50;60.00;;;15.74;50.89;97873.97;5088311;28;20242;-43
2022/05/15 06:00:28;;;;;;;5.90;4.03;;;15.50;60.40;;;15.79;51.11;97878.78;5089540;28;20047;-44
2022/05/15 06:04:39;;;;;;;5.25;4.32;;;15.60;61.20;;;15.84;51.08;97874.53;5088278;28;20048;-43
2022/05/15 06:05:46;;;;;;;5.05;4.63;;;15.70;60.80;;;15.87;50.94;97868.75;5090108;28;20237;-46
2022/05/15 06:08:16;;;;;;;5.20;3.58;;;15.70;60.40;;;15.93;50.56;97872.53;5089438;28;20060;-45
2022/05/15 06:10:43;;;;;;;6.93;3.80;;;15.80;59.50;;;16.00;50.13;97883.38;5088492;28;20277;-45
2022/05/15 06:13:12;;;;;;;5.70;3.65;;;15.90;58.70;;;16.04;50.28;97874.72;5089192;28;20338;-45
2022/05/15 06:15:41;;;;;;;7.15;3.20;;;15.90;58.60;;;16.09;49.93;97874.16;5089348;28;20360;-44
2022/05/15 06:18:09;;;;;;;6.13;3.50;;;16.00;58.30;;;16.14;49.59;97880.59;5088849;28;20258;-45
2022/05/15 06:20:36;;;;;;;3.20;2.90;;;16.10;57.50;;;16.20;48.91;97879.03;5088652;28;20062;-45
2022/05/15 06:23:05;;;;;;;5.95;3.30;;;16.10;56.30;;;16.27;48.64;97881.78;5088376;28;20062;-46
2022/05/15 06:25:33;;;;;;;4.78;2.90;;;16.20;55.60;;;16.30;47.94;97884.94;5089274;28;20054;-45
2022/05/15 06:28:02;;;;;;;3.35;2.55;;;16.30;55.00;;;16.34;47.47;97883.50;5087151;28;20206;-47
2022/05/15 06:30:30;;;;;;;5.05;3.00;;;16.40;54.10;;;16.40;47.21;97881.91;5087369;28;20274;-45
2022/05/15 06:32:59;;;;;;;4.35;2.65;;;16.50;53.60;;;16.46;47.39;97885.66;5087693;28;20070;-46
2022/05/15 06:35:27;;;;;;;4.93;3.70;;;16.50;53.90;;;16.52;47.26;97887.59;5086498;28;20039;-45
2022/05/15 06:37:54;;;;;;;4.68;3.20;;;16.50;53.80;;;16.57;47.44;97887.00;5087052;28;20058;-45
2022/05/15 06:40:22;;;;;;;5.47;4.10;;;16.60;54.00;;;16.62;47.43;97876.53;5087188;28;20475;-46
2022/05/15 06:42:50;;;;;;;4.40;3.05;;;16.60;54.10;;;16.64;47.48;97886.03;5087884;28;20419;-44
2022/05/15 06:45:18;;;;;;;8.40;3.42;;;16.70;54.20;;;16.67;47.59;97882.97;5087667;28;20054;-46
2022/05/15 06:47:46;;;;;;;5.43;3.78;;;16.70;54.20;;;16.71;47.87;97878.88;5087120;28;20040;-49
2022/05/15 06:50:14;;;;;;;4.80;3.17;;;16.70;54.50;;;16.75;47.62;97876.63;5086034;28;20064;-47
2022/05/15 06:52:43;;;;;;;5.20;3.70;;;16.70;54.40;;;16.78;47.55;97883.47;5068902;28;20366;-45
2022/05/15 06:55:22;;;;;;;3.60;3.30;;;16.80;54.30;;;16.82;48.30;97885.59;5087455;28;20350;-47
2022/05/15 06:57:50;;;;;;;4.30;3.22;;;16.80;54.90;;;16.86;47.77;97878.78;5087333;28;20350;-44
2022/05/15 07:00:25;;;;;;;4.47;3.97;;;16.90;54.60;;;16.91;48.36;97884.44;5086907;28;20043;-48
2022/05/15 07:02:53;;;;;;;6.47;4.60;;;16.90;55.20;;;16.97;48.22;97885.50;5086908;28;20346;-45
2022/05/15 07:05:28;;;;;;;6.25;3.65;;;17.00;55.40;;;17.01;48.42;97884.06;5085397;28;20372;-45
2022/05/15 07:07:56;;;;;;;4.53;3.55;;;17.10;55.50;;;17.07;48.68;97885.16;5086365;28;20056;-45
2022/05/15 07:10:25;;;;;;;4.53;3.90;;;17.10;55.60;;;17.12;48.54;97886.22;5087607;28;20062;-46
2022/05/15 07:12:53;;;;;;;4.38;3.70;;;17.20;55.40;;;17.19;48.41;97883.56;5068890;28;20058;-46
2022/05/15 07:15:21;;;;;;;4.90;3.45;;;17.20;55.20;;;17.22;48.44;97877.81;5088218;28;20044;-44
2022/05/15 07:17:49;;;;;;;5.30;4.13;;;17.30;55.30;;;17.27;48.08;97879.88;5086098;28;20044;-46
2022/05/15 07:20:18;;;;;;;5.20;3.83;;;17.30;54.90;;;17.31;48.21;97879.31;5067802;28;20056;-44
2022/05/15 07:22:46;;;;;;;4.63;3.28;;;17.40;54.80;;;17.38;48.05;97883.91;5086938;28;20040;-44
2022/05/15 07:25:14;;;;;;;4.93;3.10;;;17.50;54.70;;;17.42;47.94;97877.09;5087947;28;20047;-44
2022/05/15 07:27:42;;;;;;;4.65;3.70;;;17.50;54.60;;;17.48;48.08;97885.19;5085968;28;20040;-46
2022/05/15 07:30:11;;;;;;;4.78;3.15;;;17.50;54.60;;;17.55;47.74;97884.41;5086753;28;20450;-44
2022/05/15 07:32:44;;;;;;;;;;;17.60;54.10;;;17.54;47.34;97882.72;5085048;28;20066;-47
2022/05/15 07:35:12;;;;;;;6.22;2.92;;;17.60;53.50;;;17.62;46.83;97882.56;5086596;28;19934;-45
2022/05/15 07:37:40;;;;;;;2.92;2.63;;;17.70;53.30;;;17.66;46.79;97886.50;5086709;28;20074;-43
2022/05/15 07:40:09;;;;;;;5.65;3.15;;;17.70;53.10;;;17.69;46.75;97881.53;5086391;28;20363;-46
2022/05/15 07:42:41;;;;;;;8.45;3.47;;;17.80;52.80;;;17.74;46.46;97882.81;5086580;28;20338;-44
2022/05/15 07:45:12;;;;;;;5.65;2.67;;;17.80;52.50;;;17.79;46.68;97886.56;5085681;28;20055;-46
2022/05/15 07:47:41;;;;;;;4.32;2.60;;;17.80;52.80;;;17.85;46.40;97882.25;5086171;28;20048;-47
2022/05/15 07:50:11;;;;;;;2.92;2.17;;;17.90;52.60;;;17.93;46.25;97883.94;5086451;28;20059;-45
2022/05/15 07:52:40;;;;;;;4.68;2.55;;;18.00;52.30;;;17.98;46.31;97882.31;5085535;28;20048;-46
2022/05/15 07:55:12;;;;;;;4.35;2.67;;;18.10;52.40;;;18.03;46.24;97868.22;5086505;28;20042;-47
2022/05/15 07:57:40;;;;;;;4.82;3.05;;;18.20;52.20;;;18.09;46.71;97870.13;5086233;28;20044;-44
2022/05/15 08:00:16;;;;;;;4.97;2.88;;;18.30;52.70;;;18.15;46.61;97869.31;5088987;28;20238;-44
2022/05/15 08:02:45;;;;;;;3.53;2.88;;;18.30;52.60;;;18.22;46.43;97878.25;5097025;28;20053;-44
2022/05/15 08:08:09;;;;;;;5.00;2.42;;;18.40;52.30;;;18.34;46.48;97864.13;5093937;28;20054;-44
2022/05/15 08:10:41;;;;;;;4.50;2.80;;;18.50;52.50;;;18.41;46.18;97867.69;5097338;28;20043;-43
2022/05/15 08:13:18;;;;;;;3.08;2.50;;;18.60;52.30;;;18.47;46.27;97866.84;5076309;28;20052;-42
2022/05/15 08:15:46;;;;;;;3.50;2.50;;;18.70;52.50;;;18.53;46.28;97867.88;5091131;28;20053;-44
2022/05/15 08:23:59;;;;;;;7.10;2.78;;;18.80;51.40;;;18.75;45.89;97863.97;5106889;28;20070;-43
2022/05/15 08:26:29;;;;;;;4.47;2.47;;;18.90;51.80;;;18.85;45.65;97859.00;5105387;28;20053;-44
2022/05/15 08:28:57;;;;;;;2.80;2.40;;;19.00;51.50;;;18.94;45.38;97853.38;5105699;28;20356;-43
2022/05/15 08:31:26;;;;;;;3.63;2.40;;;19.10;51.00;;;19.02;45.26;97863.97;5106074;28;20337;-43
2022/05/15 08:33:55;;;;;;;5.05;2.63;;;19.20;50.80;;;19.12;45.82;97858.97;5106711;28;20052;-43
2022/05/15 08:36:23;;;;;;;4.13;2.20;;;19.20;51.70;;;19.19;45.55;97862.50;5088300;28;20051;-43
2022/05/15 08:38:51;;;;;;;3.03;2.65;;;19.40;51.40;;;19.24;44.56;97865.38;5106491;28;20373;-42
2022/05/15 08:41:25;;;;;;;6.90;2.35;;;19.50;50.00;;;19.30;44.20;97861.00;5106776;28;20047;-42
2022/05/15 08:44:34;;;;;;;3.78;2.50;;;19.50;47.50;;;19.42;43.85;97850.38;5062866;27;20365;-51
2022/05/15 08:47:33;;;;;;;4.93;2.67;;;19.60;48.90;;;19.47;44.53;97861.38;5021861;28;20053;-50
2022/05/15 08:50:13;;;;;;;4.05;2.38;;;19.70;49.50;;;19.53;44.14;97857.81;5021927;28;20076;-50
2022/05/15 08:52:56;;;;;;;3.85;2.53;;;19.70;49.60;;;19.56;44.11;97857.38;5023083;28;20280;-53
2022/05/15 08:55:36;;;;;;;3.63;2.93;;;19.70;49.40;;;19.61;44.58;97852.16;5022480;28;20536;-50
2022/05/15 08:58:50;;;;;;;3.83;3.35;;;19.80;50.20;;;19.72;43.74;97850.69;5022030;28;20871;-51
2022/05/15 09:01:29;;;;;;;6.40;3.00;;;19.80;49.30;;;19.79;43.97;97851.50;5023487;28;20340;-53
2022/05/15 09:03:58;;;;;;;4.40;2.47;;;19.90;49.60;;;19.86;44.14;97854.16;5023036;28;20103;-54
2022/05/15 09:07:00;;;;;;;4.50;2.40;;;20.00;49.70;;;19.89;42.25;97855.59;5023958;28;20049;-51
2022/05/15 09:09:57;;;;;;;4.70;2.58;;;20.10;48.00;;;19.98;42.72;97860.53;5021856;28;20056;-52
2022/05/15 09:12:26;;;;;;;6.65;3.10;;;20.20;47.10;;;20.06;42.36;97852.19;5021874;28;20046;-48
2022/05/15 09:15:18;;;;;;;2.97;2.15;;;20.20;48.10;;;20.14;40.62;97852.97;5023272;28;20057;-48
2022/05/15 09:18:05;;;;;;;4.25;2.38;;;20.30;45.00;;;20.21;41.99;97859.16;5021322;28;20061;-54
2022/05/15 09:20:57;;;;;;;3.72;2.53;;;20.40;46.90;;;20.30;41.33;97854.31;5023368;28;20062;-49
2022/05/15 09:23:54;;;;;;;4.75;2.63;;;20.40;46.20;;;20.34;41.23;97853.69;5022590;28;20060;-51
2022/05/15 09:26:30;;;;;;;3.53;2.28;;;20.60;44.70;;;20.44;41.16;97855.88;5022762;28;20049;-50
2022/05/15 09:29:05;;;;;;;4.57;3.00;;;20.60;45.20;;;20.50;40.96;97846.06;5022153;28;20367;-54
2022/05/15 09:31:42;;;;;;;6.10;2.40;;;20.70;45.40;;;20.56;40.34;97858.72;5022639;28;20052;-53
2022/05/15 09:34:22;;;;;;;2.80;2.40;;;20.70;44.40;;;20.60;40.39;97857.25;5023013;28;20052;-54
2022/05/15 09:38:26;;;;;;;5.07;2.97;;;20.80;45.30;;;20.68;40.22;97848.84;5021050;28;20226;-52
2022/05/15 09:39:51;;;;;;;3.13;2.40;;;20.80;44.70;;;20.72;40.48;97849.25;5021555;28;20060;-53
2022/05/15 09:45:26;;;;;;;4.05;2.53;;;20.90;44.80;;;20.83;40.37;97846.63;5024090;28;20060;-56
2022/05/15 09:47:54;;;;;;;4.57;2.38;;;21.00;43.90;;;20.88;39.73;97845.13;5021414;28;20300;-55
2022/05/15 09:50:40;;;;;;;4.75;2.50;;;21.00;43.80;;;20.92;39.54;97840.94;5021517;28;20041;-54
2022/05/15 09:53:26;;;;;;;18.75;13.00;;;21.10;42.80;;;20.96;39.44;97840.28;5024225;28;20068;-53
2022/05/15 09:56:06;;;;;;;19.23;12.55;;;21.10;43.70;;;21.06;39.95;97844.38;5019762;28;20049;-52
2022/05/15 09:58:53;;;;;;;46.80;30.00;;;21.20;44.10;;;21.11;39.15;97830.97;5037825;28;20057;-55
2022/05/15 10:01:33;;;;;;;15.20;8.18;;;21.30;42.70;;;21.17;38.81;97835.47;5037006;28;20064;-54
2022/05/15 10:04:05;;;;;;;5.65;3.00;;;21.40;42.50;;;21.21;39.53;97826.69;5040007;28;20049;-51
2022/05/15 10:06:50;;;;;;;4.50;2.53;;;21.40;43.50;;;21.29;39.68;97832.88;5035219;28;20058;-54
2022/05/15 10:09:35;;;;;;;4.55;2.70;;;21.50;43.70;;;21.32;39.76;97824.28;5037399;28;20053;-54
2022/05/15 10:12:30;;;;;;;5.18;2.83;;;21.60;43.00;;;21.36;39.19;97822.78;5036705;28;20045;-54
2022/05/15 10:15:05;;;;;;;3.92;2.42;;;21.60;42.70;;;21.45;39.59;97823.34;5068898;28;20053;-54
2022/05/15 10:17:41;;;;;;;3.83;2.72;;;21.70;43.70;;;21.53;39.30;97823.84;5034396;28;20060;-51
2022/05/15 10:20:34;;;;;;;4.38;2.72;;;21.80;43.20;;;21.61;39.13;97820.00;5035890;28;20327;-54
2022/05/15 10:23:17;;;;;;;3.72;2.53;;;21.80;42.30;;;21.67;37.99;97819.09;5041801;28;20041;-54
2022/05/15 10:25:48;;;;;;;4.97;2.00;;;21.90;41.60;;;21.77;38.63;97821.25;5040584;28;20055;-54
2022/05/15 10:28:28;;;;;;;2.45;2.20;;;22.00;42.20;;;21.78;38.49;97814.78;5043554;28;20075;-54
2022/05/15 10:31:18;;;;;;;3.67;2.42;;;22.00;41.70;;;21.81;37.39;97806.22;5043281;28;20045;-50
2022/05/15 10:34:00;;;;;;;4.03;2.55;;;22.10;41.20;;;21.89;38.09;97816.72;5041603;28;20812;-49
2022/05/15 10:36:56;;;;;;;13.00;11.80;;;22.10;41.40;;;21.96;36.90;97803.91;5033656;28;20377;-52
2022/05/15 10:40:04;;;;;;;6.07;3.05;;;22.20;39.80;;;22.05;36.18;97799.00;5032420;28;20067;-53
2022/05/15 10:43:13;;;;;;;4.43;3.05;;;22.30;39.70;;;22.13;37.07;97803.25;5029726;28;20053;-50
2022/05/15 10:45:57;;;;;;;5.72;2.85;;;22.40;39.70;;;22.18;37.35;97795.25;5028065;28;20359;-54
2022/05/15 10:48:58;;;;;;;3.60;2.40;;;22.40;40.00;;;22.21;36.46;97795.59;5026280;28;20264;-55
2022/05/15 10:51:40;;;;;;;4.70;2.30;;;22.50;39.10;;;22.27;37.09;97796.59;5027253;28;20076;-53
2022/05/15 10:57:30;;;;;;;3.63;2.42;;;22.50;39.50;;;22.39;36.70;97783.91;5026733;28;20481;-55
2022/05/15 11:00:03;;;;;;;3.85;2.38;;;22.70;39.30;;;22.49;37.04;97774.31;5025712;28;20337;-51
2022/05/15 11:03:10;;;;;;;3.45;3.15;;;22.70;40.60;;;22.52;37.42;97769.25;5027895;28;20055;-52